Etusivu
METAR-TAF:

METAR-TAF

Lentoasemat :

Odate-Noshiro, Japani

Leveyspiiri: 40-11N, Pituuspiiri: 140-12E, korkeus merenpinnasta: 84 m

Tämänhetkinen sää

Tämä raportti tehtiin 1 tunti ja 17 minuuttia sitten, kello 04.00 UTC
tyyntä
Lämpötila 0°C
Kosteus 100%
Ilmanpaine 1008 hPa
Näkyvyys: 1200 m
Muutamia pilviä 100 ft:n korkeudessa
Hajanaisia pilviä 800 ft:n korkeudessa
Hajonneita pilviä 1500 ft:n korkeudessa
heikkoja lumikuuroja, sumuhattaroita, utua

METAR: RJSR 190400Z 00000KT 1200 R11/P2000N -SHSN BCFG BR FEW001 SCT008 BKN015 00/00 Q1008

Aika: 14:17 (05:17 UTC)


TAF: puuttuu

Säähavainnot ja -ennusteet yli 4000 lentoasemalta (METAR- ja TAF-raportit).

Käytössä olevat sääasemat on merkitty karttaan keltaisilla ja punaisilla pisteillä.

Aseta hiiri pisteen päälle nähdäksesi sääaseman nimen.

Klikkaa sitten nähdäksesi säähavainnot ja -ennusteet.

Kartan vaihtaminen: klikkaa mustalla rastilla varustettuja vihreitä pisteitä, niin voit zoomata sisään; viivalla varustettua vihreää pistettä, niin voit zoomata ulos tai vihreitä nuolia, niin pääset viereisille kartoille.


METAR-TAF: